createdAt,value
2022-08-29T00:01:36.300Z,99341.97
2022-08-29T00:04:04.925Z,99349.16
2022-08-29T00:06:34.452Z,99343.53
2022-08-29T00:09:02.509Z,99349.22
2022-08-29T00:11:31.686Z,99344.19
2022-08-29T00:14:00.593Z,99338.19
2022-08-29T00:16:28.504Z,99341.00
2022-08-29T00:18:57.150Z,99347.34
2022-08-29T00:21:25.676Z,99343.28
2022-08-29T00:23:53.525Z,99340.91
2022-08-29T00:26:21.391Z,99342.44
2022-08-29T00:28:50.544Z,99344.34
2022-08-29T00:31:18.455Z,99347.72
2022-08-29T00:33:46.275Z,99350.56
2022-08-29T00:36:14.381Z,99344.75
2022-08-29T00:38:42.407Z,99340.19
2022-08-29T00:41:11.219Z,99337.97
2022-08-29T00:43:39.653Z,99344.94
2022-08-29T00:46:32.941Z,99345.81
2022-08-29T00:49:05.928Z,99350.63
2022-08-29T00:51:33.984Z,99345.13
2022-08-29T00:54:05.779Z,99349.03
2022-08-29T00:56:34.252Z,99355.59
2022-08-29T00:59:05.029Z,99351.88
2022-08-29T01:01:34.567Z,99348.50
2022-08-29T01:04:02.662Z,99357.69
2022-08-29T01:06:35.018Z,99349.28
2022-08-29T01:09:03.503Z,99356.56
2022-08-29T01:11:49.709Z,99350.25
2022-08-29T01:14:19.307Z,99354.97
2022-08-29T01:16:50.011Z,99356.28
2022-08-29T01:19:27.823Z,99357.97
2022-08-29T01:22:04.182Z,99360.47
2022-08-29T01:24:40.243Z,99356.47
2022-08-29T01:27:08.834Z,99363.75
2022-08-29T01:29:37.115Z,99362.75
2022-08-29T01:32:06.377Z,99362.00
2022-08-29T01:34:34.250Z,99372.75
2022-08-29T01:37:04.374Z,99372.34
2022-08-29T01:39:38.517Z,99369.13
2022-08-29T01:42:10.565Z,99369.25
2022-08-29T01:44:39.886Z,99364.03
2022-08-29T01:47:11.335Z,99359.69
2022-08-29T01:49:40.723Z,99364.69
2022-08-29T01:52:09.407Z,99368.09
2022-08-29T01:54:38.512Z,99359.25
2022-08-29T01:57:09.717Z,99355.59
2022-08-29T01:59:41.514Z,99362.00
2022-08-29T02:02:15.529Z,99362.47
2022-08-29T02:04:43.707Z,99364.28
2022-08-29T02:07:12.847Z,99368.44
2022-08-29T02:09:45.658Z,99358.88
2022-08-29T02:12:14.252Z,99366.97
2022-08-29T02:14:42.746Z,99361.16
2022-08-29T02:17:10.994Z,99373.31
2022-08-29T02:19:39.948Z,99366.53
2022-08-29T02:22:08.913Z,99378.59
2022-08-29T02:24:36.916Z,99373.56
2022-08-29T02:27:06.356Z,99376.34
2022-08-29T02:29:38.388Z,99374.81
2022-08-29T02:32:08.350Z,99375.72
2022-08-29T02:34:36.700Z,99373.78
2022-08-29T02:37:05.289Z,99372.66
2022-08-29T02:39:34.163Z,99372.38
2022-08-29T02:42:02.043Z,99372.25
2022-08-29T02:44:31.768Z,99367.66
2022-08-29T02:46:59.597Z,99368.72
2022-08-29T02:49:27.383Z,99360.88
2022-08-29T02:51:55.172Z,99361.78
2022-08-29T02:54:23.601Z,99364.78
2022-08-29T02:56:51.668Z,99365.38
2022-08-29T02:59:19.431Z,99366.53
2022-08-29T03:01:48.598Z,99369.69
2022-08-29T03:04:16.450Z,99372.09
2022-08-29T03:06:44.240Z,99380.75
2022-08-29T03:09:12.047Z,99373.44
2022-08-29T03:11:39.847Z,99375.25
2022-08-29T03:14:07.635Z,99371.16
2022-08-29T03:16:35.889Z,99379.53
2022-08-29T03:19:05.342Z,99381.22
2022-08-29T03:21:33.593Z,99374.56
2022-08-29T03:24:01.371Z,99384.69
2022-08-29T03:26:29.232Z,99369.75
2022-08-29T03:28:57.027Z,99374.94
2022-08-29T03:31:24.852Z,99384.25
2022-08-29T03:33:52.739Z,99373.13
2022-08-29T03:36:21.871Z,99376.38
2022-08-29T03:38:49.837Z,99372.78
2022-08-29T03:41:23.170Z,99374.38
2022-08-29T03:43:51.633Z,99382.69
2022-08-29T03:46:19.601Z,99382.91
2022-08-29T03:48:48.193Z,99381.13
2022-08-29T03:51:16.709Z,99384.66
2022-08-29T03:53:46.048Z,99385.44
2022-08-29T03:56:18.384Z,99392.41
2022-08-29T03:58:51.884Z,99390.22
2022-08-29T04:01:22.621Z,99383.47
2022-08-29T04:03:51.229Z,99379.88
2022-08-29T04:06:19.371Z,99385.50
2022-08-29T04:08:48.546Z,99385.72
2022-08-29T04:11:20.030Z,99389.13
2022-08-29T04:13:49.522Z,99388.16
2022-08-29T04:16:20.521Z,99387.69
2022-08-29T04:18:49.018Z,99397.34
2022-08-29T04:21:17.243Z,99398.25
2022-08-29T04:23:47.318Z,99396.56
2022-08-29T04:29:08.175Z,99400.34
2022-08-29T04:31:36.821Z,99404.63
2022-08-29T04:34:06.087Z,99403.13
2022-08-29T04:36:35.061Z,99403.38
2022-08-29T04:39:03.251Z,99404.47
2022-08-29T04:41:33.251Z,99411.59
2022-08-29T04:44:02.962Z,99405.97
2022-08-29T04:46:30.989Z,99417.34
2022-08-29T04:49:03.398Z,99405.25
2022-08-29T04:51:34.305Z,99416.81
2022-08-29T04:54:02.774Z,99414.56
2022-08-29T04:56:31.983Z,99416.53
2022-08-29T04:58:59.756Z,99422.44
2022-08-29T05:01:27.798Z,99418.41
2022-08-29T05:03:56.506Z,99422.09
2022-08-29T05:06:25.289Z,99424.97
2022-08-29T05:08:59.390Z,99425.16
2022-08-29T05:11:29.493Z,99435.84
2022-08-29T05:14:00.065Z,99437.28
2022-08-29T05:16:29.925Z,99433.13
2022-08-29T05:18:59.452Z,99436.97
2022-08-29T05:21:33.971Z,99441.47
2022-08-29T05:24:05.488Z,99434.56
2022-08-29T05:26:37.052Z,99435.09
2022-08-29T05:29:08.413Z,99433.66
2022-08-29T05:31:37.501Z,99438.25
2022-08-29T05:34:32.417Z,99434.38
2022-08-29T05:36:54.268Z,99443.16
2022-08-29T05:39:22.119Z,99450.56
2022-08-29T05:41:50.173Z,99442.25
2022-08-29T05:44:19.341Z,99445.28
2022-08-29T05:46:47.589Z,99444.16
2022-08-29T05:49:16.167Z,99442.56
2022-08-29T05:51:44.010Z,99433.56
2022-08-29T05:54:11.924Z,99439.44
2022-08-29T05:56:39.688Z,99439.66
2022-08-29T05:59:07.466Z,99442.25
2022-08-29T06:01:36.576Z,99443.28
2022-08-29T06:04:05.507Z,99441.13
2022-08-29T06:06:33.559Z,99447.31
2022-08-29T06:09:01.601Z,99451.38
2022-08-29T06:11:31.906Z,99449.44
2022-08-29T06:14:01.958Z,99452.56
2022-08-29T06:16:31.189Z,99453.13
2022-08-29T06:19:01.192Z,99448.41
2022-08-29T06:21:29.170Z,99450.28
2022-08-29T06:23:56.971Z,99451.97
2022-08-29T06:26:24.947Z,99459.50
2022-08-29T06:28:52.747Z,99457.88
2022-08-29T06:31:22.126Z,99455.81
2022-08-29T06:33:52.445Z,99449.53
2022-08-29T06:36:22.056Z,99450.75
2022-08-29T06:38:49.856Z,99453.97
2022-08-29T06:41:19.009Z,99465.34
2022-08-29T06:43:46.828Z,99467.03
2022-08-29T06:46:22.331Z,99468.03
2022-08-29T06:48:50.580Z,99466.72
2022-08-29T06:51:18.749Z,99475.63
2022-08-29T06:53:47.872Z,99483.56
2022-08-29T06:56:15.896Z,99480.63
2022-08-29T06:58:44.035Z,99476.41
2022-08-29T07:01:14.343Z,99484.13
2022-08-29T07:03:42.507Z,99481.66
2022-08-29T07:06:11.023Z,99493.47
2022-08-29T07:08:46.795Z,99492.88
2022-08-29T07:11:25.586Z,99497.91
2022-08-29T07:13:54.019Z,99491.81
2022-08-29T07:16:22.923Z,99495.56
2022-08-29T07:18:51.520Z,99493.97
2022-08-29T07:21:21.857Z,99488.63
2022-08-29T07:23:49.926Z,99494.88
2022-08-29T07:26:20.574Z,99497.38
2022-08-29T07:28:51.023Z,99496.00
2022-08-29T07:31:20.017Z,99496.44
2022-08-29T07:33:48.065Z,99500.31
2022-08-29T07:36:22.440Z,99498.56
2022-08-29T07:38:50.219Z,99493.44
2022-08-29T07:41:19.923Z,99495.69
2022-08-29T07:43:50.285Z,99500.13
2022-08-29T07:46:19.433Z,99501.03
2022-08-29T07:48:47.431Z,99491.88
2022-08-29T07:51:19.177Z,99494.03
2022-08-29T07:53:47.619Z,99491.81
2022-08-29T07:56:19.134Z,99496.88
2022-08-29T07:58:47.274Z,99499.31
2022-08-29T08:01:20.964Z,99496.38
2022-08-29T08:03:50.048Z,99506.47
2022-08-29T08:06:18.405Z,99508.03
2022-08-29T08:08:46.206Z,99500.22
2022-08-29T08:11:14.519Z,99499.69
2022-08-29T08:13:42.623Z,99501.91
2022-08-29T08:16:12.976Z,99505.53
2022-08-29T08:18:43.702Z,99503.41
2022-08-29T08:21:12.787Z,99502.66
2022-08-29T08:23:41.410Z,99506.03
2022-08-29T08:26:10.539Z,99510.09
2022-08-29T08:28:38.979Z,99514.31
2022-08-29T08:31:09.055Z,99511.22
2022-08-29T08:33:38.719Z,99509.56
2022-08-29T08:36:14.418Z,99506.41
2022-08-29T08:38:42.205Z,99505.47
2022-08-29T08:41:21.815Z,99513.91
2022-08-29T08:43:54.426Z,99502.03
2022-08-29T08:46:31.288Z,99516.84
2022-08-29T08:49:02.022Z,99513.38
2022-08-29T08:51:35.157Z,99514.97
2022-08-29T08:54:08.484Z,99507.06
2022-08-29T08:56:42.163Z,99510.91
2022-08-29T08:59:16.664Z,99507.75
2022-08-29T09:01:53.449Z,99507.66
2022-08-29T09:04:36.410Z,99511.78
2022-08-29T09:07:29.666Z,99520.28
2022-08-29T09:10:10.567Z,99519.94
2022-08-29T09:12:51.428Z,99515.53
2022-08-29T09:15:23.438Z,99517.00
2022-08-29T09:17:53.708Z,99516.38
2022-08-29T09:20:23.918Z,99507.22
2022-08-29T09:23:00.651Z,99507.38
2022-08-29T09:25:30.233Z,99512.81
2022-08-29T09:27:59.085Z,99514.38
2022-08-29T09:30:29.519Z,99512.78
2022-08-29T09:33:02.561Z,99508.81
2022-08-29T09:35:37.754Z,99508.59
2022-08-29T09:38:09.096Z,99507.25
2022-08-29T09:40:49.454Z,99503.78
2022-08-29T09:43:18.762Z,99506.59
2022-08-29T09:46:07.565Z,99504.00
2022-08-29T09:48:37.336Z,99495.09
2022-08-29T09:51:14.907Z,99492.66
2022-08-29T09:53:44.691Z,99493.34
2022-08-29T09:56:19.005Z,99485.19
2022-08-29T09:58:57.882Z,99488.97
2022-08-29T10:01:25.703Z,99494.06
2022-08-29T10:03:59.804Z,99494.63
2022-08-29T10:06:29.939Z,99493.81
2022-08-29T10:09:00.528Z,99498.47
2022-08-29T10:11:35.275Z,99496.22
2022-08-29T10:14:12.529Z,99487.81
2022-08-29T10:16:49.731Z,99484.03
2022-08-29T10:19:21.470Z,99481.81
2022-08-29T10:22:00.537Z,99479.31
2022-08-29T10:24:49.195Z,99482.94
2022-08-29T10:27:32.004Z,99477.97
2022-08-29T10:30:07.163Z,99478.16
2022-08-29T10:33:04.055Z,99477.66
2022-08-29T10:35:39.894Z,99477.81
2022-08-29T10:38:16.080Z,99469.03
2022-08-29T10:40:49.488Z,99479.59
2022-08-29T10:43:32.756Z,99475.72
2022-08-29T10:46:11.778Z,99477.78
2022-08-29T10:48:49.370Z,99478.00
2022-08-29T10:51:23.348Z,99476.97
2022-08-29T10:53:56.576Z,99471.13
2022-08-29T10:56:30.593Z,99472.13
2022-08-29T10:59:07.770Z,99481.03
2022-08-29T11:01:40.148Z,99474.47
2022-08-29T11:04:17.781Z,99475.44
2022-08-29T11:06:53.380Z,99476.41
2022-08-29T11:09:26.355Z,99469.81
2022-08-29T11:12:17.434Z,99464.16
2022-08-29T11:14:51.567Z,99457.00
2022-08-29T11:17:21.875Z,99449.84
2022-08-29T11:19:59.071Z,99458.19
2022-08-29T11:22:32.249Z,99463.78
2022-08-29T11:25:06.867Z,99452.97
2022-08-29T11:27:46.466Z,99449.06
2022-08-29T11:30:20.118Z,99454.03
2022-08-29T11:33:00.525Z,99450.94
2022-08-29T11:35:38.087Z,99449.63
2022-08-29T11:38:43.093Z,99440.09
2022-08-29T11:41:28.490Z,99442.72
2022-08-29T11:44:09.653Z,99448.47
2022-08-29T11:46:41.554Z,99443.28
2022-08-29T11:49:34.188Z,99437.81
2022-08-29T11:52:18.895Z,99442.41
2022-08-29T11:55:16.102Z,99437.09
2022-08-29T11:58:00.404Z,99437.41
2022-08-29T12:00:57.525Z,99433.00
2022-08-29T12:03:54.174Z,99435.41
2022-08-29T12:06:38.779Z,99433.81
2022-08-29T12:09:19.741Z,99430.75
2022-08-29T12:12:28.474Z,99421.38
2022-08-29T12:14:56.959Z,99425.03
2022-08-29T12:18:01.284Z,99424.47
2022-08-29T12:20:41.183Z,99421.94
2022-08-29T12:23:21.223Z,99420.25
2022-08-29T12:26:09.411Z,99426.22
2022-08-29T12:28:48.447Z,99414.81
2022-08-29T12:32:02.226Z,99407.97
2022-08-29T12:34:49.745Z,99403.16
2022-08-29T12:37:39.661Z,99406.06
2022-08-29T12:40:42.221Z,99401.44
2022-08-29T12:43:42.859Z,99401.66
2022-08-29T12:46:14.936Z,99388.47
2022-08-29T12:48:57.348Z,99400.53
2022-08-29T12:51:35.132Z,99389.28
2022-08-29T12:54:03.021Z,99384.47
2022-08-29T12:56:30.940Z,99386.84
2022-08-29T12:59:00.973Z,99383.63
2022-08-29T13:01:30.843Z,99390.88
2022-08-29T13:04:02.910Z,99373.56
2022-08-29T13:06:31.074Z,99380.75
2022-08-29T13:09:01.045Z,99376.88
2022-08-29T13:11:30.321Z,99372.94
2022-08-29T13:14:07.900Z,99371.03
2022-08-29T13:16:36.083Z,99363.88
2022-08-29T13:19:11.919Z,99358.09
2022-08-29T13:21:39.910Z,99355.06
2022-08-29T13:24:14.447Z,99349.38
2022-08-29T13:27:02.805Z,99351.19
2022-08-29T13:29:37.736Z,99345.78
2022-08-29T13:32:27.573Z,99346.66
2022-08-29T13:35:07.991Z,99339.75
2022-08-29T13:37:37.881Z,99334.44
2022-08-29T13:40:34.365Z,99332.16
2022-08-29T13:43:02.419Z,99335.94
2022-08-29T13:45:30.476Z,99328.38
2022-08-29T13:48:02.400Z,99329.16
2022-08-29T13:50:31.116Z,99324.75
2022-08-29T13:52:59.836Z,99328.72
2022-08-29T13:55:29.259Z,99314.50
2022-08-29T13:57:58.500Z,99319.47
2022-08-29T14:00:35.256Z,99319.78
2022-08-29T14:03:07.017Z,99312.59
2022-08-29T14:05:36.192Z,99311.50
2022-08-29T14:08:06.016Z,99314.28
2022-08-29T14:10:33.833Z,99305.06
2022-08-29T14:13:03.396Z,99310.59
2022-08-29T14:15:31.351Z,99308.63
2022-08-29T14:17:59.555Z,99310.13
2022-08-29T14:20:27.492Z,99305.78
2022-08-29T14:22:55.237Z,99306.75
2022-08-29T14:25:23.257Z,99317.00
2022-08-29T14:27:51.378Z,99306.06
2022-08-29T14:30:23.631Z,99304.41
2022-08-29T14:32:51.515Z,99292.41
2022-08-29T14:35:26.468Z,99292.47
2022-08-29T14:37:59.986Z,99292.34
2022-08-29T14:40:28.805Z,99290.28
2022-08-29T14:42:57.938Z,99293.91
2022-08-29T14:45:27.628Z,99290.38
2022-08-29T14:47:55.679Z,99290.59
2022-08-29T14:50:24.575Z,99285.75
2022-08-29T14:52:52.500Z,99294.78
2022-08-29T14:55:21.321Z,99296.06
2022-08-29T14:57:49.189Z,99294.09
2022-08-29T15:00:20.181Z,99290.56
2022-08-29T15:02:49.725Z,99285.13
2022-08-29T15:05:17.727Z,99283.63
2022-08-29T15:07:45.614Z,99293.31
2022-08-29T15:10:15.648Z,99281.19
2022-08-29T15:12:43.371Z,99286.25
2022-08-29T15:15:11.935Z,99280.00
2022-08-29T15:17:43.512Z,99279.63
2022-08-29T15:23:02.046Z,99268.47
2022-08-29T15:25:30.180Z,99263.59
2022-08-29T15:27:58.019Z,99263.63
2022-08-29T15:30:26.543Z,99267.66
2022-08-29T15:32:54.476Z,99256.84
2022-08-29T15:35:24.001Z,99266.41
2022-08-29T15:37:53.580Z,99248.97
2022-08-29T15:40:21.483Z,99257.06
2022-08-29T15:42:49.338Z,99254.25
2022-08-29T15:45:17.535Z,99250.31
2022-08-29T15:47:46.126Z,99251.47
2022-08-29T15:50:15.028Z,99243.66
2022-08-29T15:52:44.287Z,99248.53
2022-08-29T15:55:12.816Z,99253.03
2022-08-29T15:57:51.172Z,99239.44
2022-08-29T16:00:30.148Z,99241.56
2022-08-29T16:03:04.284Z,99240.78
2022-08-29T16:05:34.266Z,99243.09
2022-08-29T16:08:03.848Z,99244.00
2022-08-29T16:10:32.200Z,99240.59
2022-08-29T16:13:00.577Z,99233.16
2022-08-29T16:15:31.032Z,99241.50
2022-08-29T16:17:59.881Z,99237.50
2022-08-29T16:20:27.855Z,99234.63
2022-08-29T16:22:56.306Z,99236.72
2022-08-29T16:25:26.177Z,99239.16
2022-08-29T16:27:54.275Z,99239.81
2022-08-29T16:30:22.375Z,99235.72
2022-08-29T16:32:51.109Z,99238.94
2022-08-29T16:35:19.852Z,99233.16
2022-08-29T16:37:48.120Z,99242.13
2022-08-29T16:40:33.219Z,99236.50
2022-08-29T16:43:02.159Z,99244.28
2022-08-29T16:45:30.071Z,99244.06
2022-08-29T16:47:58.061Z,99236.50
2022-08-29T16:50:27.673Z,99233.56
2022-08-29T16:52:55.870Z,99232.25
2022-08-29T16:55:24.297Z,99231.06
2022-08-29T16:58:10.915Z,99231.19
2022-08-29T17:00:40.554Z,99221.78
2022-08-29T17:03:08.755Z,99231.56
2022-08-29T17:05:36.724Z,99223.34
2022-08-29T17:08:04.011Z,99223.22
2022-08-29T17:10:30.738Z,99216.91
2022-08-29T17:12:58.781Z,99215.75
2022-08-29T17:15:25.550Z,99220.66
2022-08-29T17:17:53.365Z,99221.94
2022-08-29T17:20:21.279Z,99225.59
2022-08-29T17:22:49.093Z,99222.81
2022-08-29T17:25:16.983Z,99215.28
2022-08-29T17:28:00.831Z,99226.28
2022-08-29T17:30:34.033Z,99240.31
2022-08-29T17:33:01.936Z,99229.19
2022-08-29T17:35:31.268Z,99230.25
2022-08-29T17:37:59.601Z,99233.81
2022-08-29T17:40:27.589Z,99227.66
2022-08-29T17:42:55.466Z,99229.28
2022-08-29T17:45:23.499Z,99230.03
2022-08-29T17:47:52.676Z,99231.03
2022-08-29T17:50:20.796Z,99235.56
2022-08-29T17:52:48.571Z,99222.06
2022-08-29T17:55:16.372Z,99223.16
2022-08-29T17:57:44.167Z,99229.09
2022-08-29T18:00:13.351Z,99235.72
2022-08-29T18:02:41.752Z,99234.44
2022-08-29T18:05:12.715Z,99235.78
2022-08-29T18:07:40.705Z,99230.81
2022-08-29T18:10:11.142Z,99237.31
2022-08-29T18:12:39.755Z,99243.06
2022-08-29T18:15:10.145Z,99243.38
2022-08-29T18:17:38.202Z,99238.47
2022-08-29T18:20:07.954Z,99246.47
2022-08-29T18:22:38.248Z,99254.22
2022-08-29T18:25:08.528Z,99246.72
2022-08-29T18:27:36.171Z,99252.94
2022-08-29T18:30:06.240Z,99244.50
2022-08-29T18:32:37.250Z,99254.06
2022-08-29T18:35:06.247Z,99255.09
2022-08-29T18:37:34.018Z,99249.06
2022-08-29T18:40:04.803Z,99255.69
2022-08-29T18:42:41.428Z,99270.06
2022-08-29T18:45:11.038Z,99263.22
2022-08-29T18:47:39.417Z,99263.47
2022-08-29T18:50:25.599Z,99268.59
2022-08-29T18:52:54.970Z,99262.44
2022-08-29T18:55:24.963Z,99274.28
2022-08-29T18:57:54.138Z,99284.09
2022-08-29T19:00:24.143Z,99276.28
2022-08-29T19:02:52.135Z,99273.88
2022-08-29T19:05:24.865Z,99280.97
2022-08-29T19:07:53.394Z,99287.72
2022-08-29T19:10:22.037Z,99281.66
2022-08-29T19:12:51.321Z,99288.19
2022-08-29T19:15:19.960Z,99286.00
2022-08-29T19:17:48.038Z,99291.25
2022-08-29T19:20:36.631Z,99297.38
2022-08-29T19:23:04.879Z,99298.22
2022-08-29T19:25:32.814Z,99301.75
2022-08-29T19:28:02.485Z,99300.94
2022-08-29T19:30:31.025Z,99300.56
2022-08-29T19:32:59.080Z,99297.09
2022-08-29T19:35:27.396Z,99299.34
2022-08-29T19:37:56.684Z,99301.56
2022-08-29T19:40:24.596Z,99292.75
2022-08-29T19:42:52.635Z,99294.31
2022-08-29T19:45:21.846Z,99298.63
2022-08-29T19:47:49.799Z,99298.09
2022-08-29T19:50:18.870Z,99292.00
2022-08-29T19:52:47.363Z,99284.06
2022-08-29T19:55:17.781Z,99294.66
2022-08-29T19:57:47.376Z,99294.66
2022-08-29T20:00:17.919Z,99297.94
2022-08-29T20:02:47.259Z,99295.09
2022-08-29T20:05:16.087Z,99294.47
2022-08-29T20:07:45.324Z,99293.63
2022-08-29T20:10:16.724Z,99304.84
2022-08-29T20:12:49.397Z,99300.44
2022-08-29T20:15:19.299Z,99296.47
2022-08-29T20:17:48.475Z,99300.94
2022-08-29T20:20:20.068Z,99308.59
2022-08-29T20:22:48.970Z,99322.44
2022-08-29T20:25:17.706Z,99318.63
2022-08-29T20:27:46.568Z,99320.22
2022-08-29T20:30:17.005Z,99317.50
2022-08-29T20:32:47.775Z,99317.28
2022-08-29T20:35:39.468Z,99320.44
2022-08-29T20:38:06.920Z,99321.47
2022-08-29T20:40:37.835Z,99330.69
2022-08-29T20:43:06.247Z,99331.19
2022-08-29T20:45:34.550Z,99329.59
2022-08-29T20:48:02.506Z,99335.19
2022-08-29T20:50:32.047Z,99336.53
2022-08-29T20:52:59.891Z,99337.38
2022-08-29T20:55:27.757Z,99348.41
2022-08-29T20:57:55.565Z,99344.72
2022-08-29T21:00:23.700Z,99341.16
2022-08-29T21:03:09.003Z,99331.38
2022-08-29T21:05:42.532Z,99342.97
2022-08-29T21:08:12.596Z,99347.78
2022-08-29T21:10:40.488Z,99348.97
2022-08-29T21:13:09.411Z,99352.13
2022-08-29T21:15:37.320Z,99351.94
2022-08-29T21:18:05.710Z,99350.31
2022-08-29T21:20:36.289Z,99350.69
2022-08-29T21:23:11.432Z,99348.81
2022-08-29T21:25:41.448Z,99350.22
2022-08-29T21:28:09.418Z,99345.97
2022-08-29T21:30:41.375Z,99352.78
2022-08-29T21:33:13.015Z,99355.41
2022-08-29T21:35:42.008Z,99347.69
2022-08-29T21:38:12.164Z,99358.38
2022-08-29T21:40:50.499Z,99359.00
2022-08-29T21:43:19.282Z,99356.69
2022-08-29T21:45:47.247Z,99357.63
2022-08-29T21:48:15.370Z,99362.00
2022-08-29T21:50:43.862Z,99357.75
2022-08-29T21:53:14.238Z,99357.13
2022-08-29T21:55:42.111Z,99351.19
2022-08-29T21:58:09.976Z,99358.88
2022-08-29T22:00:42.096Z,99363.41
2022-08-29T22:03:12.297Z,99363.56
2022-08-29T22:05:43.844Z,99363.06
2022-08-29T22:08:13.332Z,99371.97
2022-08-29T22:10:42.568Z,99363.97
2022-08-29T22:13:10.613Z,99360.78
2022-08-29T22:15:56.674Z,99364.59
2022-08-29T22:18:24.622Z,99366.66
2022-08-29T22:20:52.881Z,99369.75
2022-08-29T22:23:25.411Z,99374.28
2022-08-29T22:25:53.946Z,99373.97
2022-08-29T22:28:21.764Z,99377.22
2022-08-29T22:30:50.465Z,99377.38
2022-08-29T22:33:18.508Z,99368.50
2022-08-29T22:35:46.784Z,99379.56
2022-08-29T22:38:14.746Z,99378.41
2022-08-29T22:40:45.482Z,99378.06
2022-08-29T22:43:13.547Z,99366.47
2022-08-29T22:45:41.634Z,99373.25
2022-08-29T22:48:09.696Z,99374.13
2022-08-29T22:50:38.042Z,99375.63
2022-08-29T22:53:06.386Z,99380.19
2022-08-29T22:55:34.380Z,99373.63
2022-08-29T22:58:04.756Z,99383.50
2022-08-29T23:00:32.668Z,99373.25
2022-08-29T23:03:02.179Z,99379.56
2022-08-29T23:05:30.489Z,99378.16
2022-08-29T23:07:58.311Z,99375.94
2022-08-29T23:10:26.295Z,99378.38
2022-08-29T23:12:54.089Z,99378.63
2022-08-29T23:15:23.259Z,99371.66
2022-08-29T23:17:51.062Z,99381.84
2022-08-29T23:20:19.221Z,99389.28
2022-08-29T23:22:47.230Z,99379.34
2022-08-29T23:25:17.861Z,99378.16
2022-08-29T23:27:45.786Z,99377.03
2022-08-29T23:30:14.880Z,99382.16
2022-08-29T23:32:44.137Z,99378.44
2022-08-29T23:35:11.991Z,99385.59
2022-08-29T23:37:39.990Z,99384.44
2022-08-29T23:40:09.602Z,99378.69
2022-08-29T23:42:37.923Z,99380.59
2022-08-29T23:45:06.679Z,99383.28
2022-08-29T23:47:36.060Z,99384.66
2022-08-29T23:50:06.526Z,99380.22
2022-08-29T23:52:34.483Z,99376.38
2022-08-29T23:55:02.466Z,99369.81
2022-08-29T23:57:30.243Z,99368.97
